createdAt,value
2017-09-21T00:00:14.343Z,11.94
2017-09-21T00:01:14.406Z,11.94
2017-09-21T00:03:07.417Z,11.91
2017-09-21T00:04:07.454Z,11.88
2017-09-21T00:06:00.461Z,11.88
2017-09-21T00:07:00.501Z,11.84
2017-09-21T00:08:53.489Z,11.87
2017-09-21T00:09:53.547Z,11.80
2017-09-21T00:11:46.557Z,11.84
2017-09-21T00:12:46.602Z,11.73
2017-09-21T00:14:39.586Z,11.70
2017-09-21T00:15:39.648Z,11.65
2017-09-21T00:17:32.658Z,11.51
2017-09-21T00:18:32.698Z,11.52
2017-09-21T00:20:25.688Z,11.50
2017-09-21T00:21:25.746Z,11.50
2017-09-21T00:23:18.757Z,11.41
2017-09-21T00:24:18.795Z,11.41
2017-09-21T00:26:11.803Z,11.30
2017-09-21T00:27:11.846Z,11.29
2017-09-21T00:29:04.834Z,11.19
2017-09-21T00:30:04.889Z,11.27
2017-09-21T00:31:57.898Z,11.29
2017-09-21T00:32:57.938Z,11.19
2017-09-21T00:34:50.926Z,11.26
2017-09-21T00:35:50.985Z,11.27
2017-09-21T00:37:43.994Z,11.37
2017-09-21T00:38:44.033Z,11.32
2017-09-21T00:40:37.025Z,11.25
2017-09-21T00:41:37.087Z,11.29
2017-09-21T00:43:30.094Z,11.26
2017-09-21T00:44:30.134Z,11.18
2017-09-21T00:46:23.141Z,11.14
2017-09-21T00:47:23.186Z,11.10
2017-09-21T00:49:16.172Z,11.11
2017-09-21T00:50:16.228Z,11.23
2017-09-21T00:52:09.242Z,11.22
2017-09-21T00:53:09.285Z,11.36
2017-09-21T00:55:02.267Z,11.37
2017-09-21T00:56:02.328Z,11.35
2017-09-21T00:57:55.333Z,11.40
2017-09-21T00:58:55.375Z,11.44
2017-09-21T01:00:48.357Z,11.43
2017-09-21T01:01:48.418Z,11.29
2017-09-21T01:03:41.426Z,11.27
2017-09-21T01:04:41.467Z,11.29
2017-09-21T01:06:34.471Z,11.40
2017-09-21T01:07:34.512Z,11.25
2017-09-21T01:09:27.501Z,11.43
2017-09-21T01:10:27.560Z,11.40
2017-09-21T01:12:20.567Z,11.54
2017-09-21T01:13:20.607Z,11.48
2017-09-21T01:15:13.597Z,11.55
2017-09-21T01:16:13.654Z,11.51
2017-09-21T01:18:06.660Z,11.50
2017-09-21T01:19:06.699Z,11.47
2017-09-21T01:20:59.687Z,11.50
2017-09-21T01:21:59.748Z,11.54
2017-09-21T01:23:52.753Z,11.40
2017-09-21T01:24:52.794Z,11.44
2017-09-21T01:26:45.798Z,11.52
2017-09-21T01:27:45.839Z,11.48
2017-09-21T01:29:38.826Z,11.48
2017-09-21T01:30:38.886Z,11.52
2017-09-21T01:32:31.895Z,11.47
2017-09-21T01:33:31.933Z,11.40
2017-09-21T01:35:24.922Z,11.33
2017-09-21T01:36:24.979Z,11.23
2017-09-21T01:38:17.988Z,11.36
2017-09-21T01:39:18.033Z,11.41
2017-09-21T01:41:11.020Z,11.36
2017-09-21T01:42:11.081Z,11.41
2017-09-21T01:44:04.087Z,11.30
2017-09-21T01:45:04.129Z,11.22
2017-09-21T01:46:57.138Z,11.27
2017-09-21T01:47:57.177Z,11.23
2017-09-21T01:49:50.166Z,11.23
2017-09-21T01:50:50.225Z,11.29
2017-09-21T01:52:43.230Z,11.23
2017-09-21T01:53:43.271Z,11.26
2017-09-21T01:55:36.254Z,11.26
2017-09-21T01:56:36.315Z,11.26
2017-09-21T01:58:29.327Z,11.23
2017-09-21T01:59:29.363Z,11.08
2017-09-21T02:01:22.355Z,11.12
2017-09-21T02:02:22.408Z,11.12
2017-09-21T02:04:15.420Z,11.14
2017-09-21T02:05:15.459Z,11.07
2017-09-21T02:07:08.467Z,11.07
2017-09-21T02:08:08.508Z,11.22
2017-09-21T02:10:01.495Z,11.23
2017-09-21T02:11:01.551Z,11.14
2017-09-21T02:12:54.562Z,11.17
2017-09-21T02:13:54.601Z,11.23
2017-09-21T02:15:47.591Z,11.26
2017-09-21T02:16:47.647Z,11.17
2017-09-21T02:18:40.659Z,11.19
2017-09-21T02:19:40.692Z,11.18
2017-09-21T02:21:33.682Z,11.22
2017-09-21T02:22:33.738Z,11.29
2017-09-21T02:24:26.743Z,11.23
2017-09-21T02:25:26.783Z,11.30
2017-09-21T02:27:19.791Z,11.29
2017-09-21T02:28:19.830Z,11.29
2017-09-21T02:30:12.858Z,11.30
2017-09-21T02:31:12.875Z,11.35
2017-09-21T02:33:05.881Z,11.30
2017-09-21T02:34:05.924Z,11.40
2017-09-21T02:35:58.909Z,11.29
2017-09-21T02:36:58.970Z,11.36
2017-09-21T02:38:51.980Z,11.45
2017-09-21T02:39:52.029Z,11.37
2017-09-21T02:41:45.014Z,11.45
2017-09-21T02:42:45.064Z,11.43
2017-09-21T02:44:38.579Z,11.43
2017-09-21T02:45:38.618Z,11.41
2017-09-21T02:47:31.624Z,11.45
2017-09-21T02:48:31.665Z,11.36
2017-09-21T02:50:24.656Z,11.41
2017-09-21T02:51:24.709Z,11.45
2017-09-21T02:53:17.719Z,11.44
2017-09-21T02:54:17.761Z,11.43
2017-09-21T02:56:10.744Z,11.44
2017-09-21T02:57:10.806Z,11.37
2017-09-21T02:59:03.810Z,11.48
2017-09-21T03:00:03.854Z,11.50
2017-09-21T03:01:56.834Z,11.54
2017-09-21T03:02:56.911Z,11.51
2017-09-21T03:04:49.904Z,11.57
2017-09-21T03:05:49.945Z,11.59
2017-09-21T03:07:42.955Z,11.52
2017-09-21T03:08:42.988Z,11.57
2017-09-21T03:10:35.977Z,11.57
2017-09-21T03:11:36.034Z,11.50
2017-09-21T03:13:29.040Z,11.52
2017-09-21T03:14:29.080Z,11.51
2017-09-21T03:16:22.069Z,11.54
2017-09-21T03:17:22.129Z,11.55
2017-09-21T03:19:15.134Z,11.54
2017-09-21T03:20:15.175Z,11.54
2017-09-21T03:22:08.163Z,11.52
2017-09-21T03:23:08.220Z,11.50
2017-09-21T03:25:01.225Z,11.45
2017-09-21T03:26:01.264Z,11.50
2017-09-21T03:27:54.274Z,11.51
2017-09-21T03:28:54.487Z,11.45
2017-09-21T03:30:47.303Z,11.51
2017-09-21T03:31:47.364Z,11.54
2017-09-21T03:33:40.371Z,11.45
2017-09-21T03:34:40.409Z,11.51
2017-09-21T03:36:33.398Z,11.52
2017-09-21T03:37:33.453Z,11.44
2017-09-21T03:39:26.460Z,11.45
2017-09-21T03:40:26.499Z,11.40
2017-09-21T03:42:19.490Z,11.33
2017-09-21T03:43:19.553Z,11.29
2017-09-21T03:45:13.064Z,11.33
2017-09-21T03:46:13.104Z,11.30
2017-09-21T03:48:06.111Z,11.30
2017-09-21T03:49:06.157Z,11.25
2017-09-21T03:50:59.141Z,11.27
2017-09-21T03:51:59.201Z,11.23
2017-09-21T03:53:52.208Z,11.15
2017-09-21T03:54:52.245Z,11.22
2017-09-21T03:56:45.231Z,11.22
2017-09-21T03:57:45.294Z,11.07
2017-09-21T03:59:38.299Z,11.11
2017-09-21T04:00:38.340Z,11.22
2017-09-21T04:02:31.329Z,11.11
2017-09-21T04:03:31.387Z,11.12
2017-09-21T04:05:24.399Z,11.15
2017-09-21T04:06:24.438Z,11.18
2017-09-21T04:08:17.443Z,11.08
2017-09-21T04:09:17.483Z,11.14
2017-09-21T04:11:10.472Z,10.99
2017-09-21T04:12:10.530Z,11.05
2017-09-21T04:14:03.535Z,11.10
2017-09-21T04:15:03.575Z,10.99
2017-09-21T04:16:56.564Z,11.10
2017-09-21T04:17:56.619Z,11.00
2017-09-21T04:19:49.625Z,10.99
2017-09-21T04:20:49.671Z,10.99
2017-09-21T04:22:42.654Z,11.02
2017-09-21T04:23:42.709Z,10.99
2017-09-21T04:25:35.713Z,11.04
2017-09-21T04:26:35.755Z,10.99
2017-09-21T04:28:28.760Z,11.05
2017-09-21T04:29:28.799Z,10.97
2017-09-21T04:31:21.788Z,10.90
2017-09-21T04:32:21.844Z,10.97
2017-09-21T04:34:14.862Z,10.89
2017-09-21T04:35:14.889Z,10.86
2017-09-21T04:37:07.879Z,10.90
2017-09-21T04:38:07.942Z,10.84
2017-09-21T04:40:00.949Z,10.75
2017-09-21T04:41:00.989Z,10.78
2017-09-21T04:42:53.973Z,10.84
2017-09-21T04:43:54.034Z,10.72
2017-09-21T04:45:47.046Z,10.61
2017-09-21T04:46:47.085Z,10.60
2017-09-21T04:48:40.099Z,10.53
2017-09-21T04:49:40.138Z,10.60
2017-09-21T04:51:33.136Z,10.59
2017-09-21T04:52:33.188Z,10.57
2017-09-21T04:54:26.192Z,10.51
2017-09-21T04:55:26.231Z,10.49
2017-09-21T04:57:19.239Z,10.51
2017-09-21T04:58:19.280Z,10.60
2017-09-21T05:00:12.296Z,10.46
2017-09-21T05:01:12.326Z,10.49
2017-09-21T05:03:05.314Z,10.48
2017-09-21T05:04:05.372Z,10.35
2017-09-21T05:05:58.380Z,10.34
2017-09-21T05:06:58.419Z,10.34
2017-09-21T05:08:51.430Z,10.26
2017-09-21T05:09:51.470Z,10.23
2017-09-21T05:11:44.458Z,10.17
2017-09-21T05:12:44.513Z,10.15
2017-09-21T05:14:37.520Z,10.22
2017-09-21T05:15:37.559Z,10.30
2017-09-21T05:17:30.547Z,10.22
2017-09-21T05:18:30.603Z,10.23
2017-09-21T05:20:23.607Z,10.22
2017-09-21T05:21:23.646Z,10.15
2017-09-21T05:23:16.644Z,10.16
2017-09-21T05:24:16.703Z,10.16
2017-09-21T05:26:09.704Z,10.09
2017-09-21T05:27:09.746Z,10.13
2017-09-21T05:29:02.748Z,10.13
2017-09-21T05:30:02.790Z,10.10
2017-09-21T05:31:55.778Z,10.15
2017-09-21T05:32:55.834Z,10.09
2017-09-21T05:34:48.843Z,10.13
2017-09-21T05:35:48.881Z,10.13
2017-09-21T05:37:41.870Z,10.15
2017-09-21T05:38:41.928Z,10.19
2017-09-21T05:40:34.934Z,10.19
2017-09-21T05:41:34.971Z,10.22
2017-09-21T05:43:27.961Z,10.16
2017-09-21T05:44:28.013Z,10.17
2017-09-21T05:46:21.034Z,10.23
2017-09-21T05:47:21.060Z,10.19
2017-09-21T05:49:14.077Z,10.17
2017-09-21T05:50:14.109Z,10.17
2017-09-21T05:52:07.111Z,10.25
2017-09-21T05:53:07.174Z,10.20
2017-09-21T05:55:00.166Z,10.34
2017-09-21T05:56:00.201Z,10.34
2017-09-21T05:57:53.718Z,10.44
2017-09-21T05:58:53.753Z,10.49
2017-09-21T06:00:46.769Z,10.42
2017-09-21T06:01:46.798Z,10.48
2017-09-21T06:03:39.793Z,10.59
2017-09-21T06:04:39.844Z,10.60
2017-09-21T06:06:32.850Z,10.75
2017-09-21T06:07:32.889Z,10.76
2017-09-21T06:09:25.896Z,10.81
2017-09-21T06:10:25.935Z,10.86
2017-09-21T06:12:18.923Z,11.02
2017-09-21T06:13:18.987Z,10.93
2017-09-21T06:15:12.008Z,11.07
2017-09-21T06:16:12.033Z,11.10
2017-09-21T06:18:05.019Z,11.15
2017-09-21T06:19:05.075Z,11.18
2017-09-21T06:20:58.081Z,11.26
2017-09-21T06:21:58.123Z,11.23
2017-09-21T06:23:51.113Z,11.25
2017-09-21T06:24:51.172Z,11.37
2017-09-21T06:26:44.181Z,11.45
2017-09-21T06:27:44.217Z,11.47
2017-09-21T06:29:37.228Z,11.57
2017-09-21T06:30:37.269Z,11.57
2017-09-21T06:32:30.257Z,11.72
2017-09-21T06:33:30.320Z,11.81
2017-09-21T06:35:23.328Z,11.95
2017-09-21T06:36:23.373Z,12.09
2017-09-21T06:38:16.363Z,12.24
2017-09-21T06:39:16.420Z,12.29
2017-09-21T06:41:09.429Z,12.53
2017-09-21T06:42:09.483Z,12.76
2017-09-21T06:44:02.457Z,12.91
2017-09-21T06:45:02.518Z,13.19
2017-09-21T06:46:55.530Z,13.99
2017-09-21T06:47:55.567Z,14.59
2017-09-21T06:49:48.583Z,15.64
2017-09-21T06:50:48.621Z,16.17
2017-09-21T06:52:41.623Z,16.89
2017-09-21T06:53:41.679Z,17.45
2017-09-21T06:55:34.699Z,18.40
2017-09-21T06:56:34.736Z,18.52
2017-09-21T06:58:28.236Z,19.14
2017-09-21T06:59:28.296Z,19.26
2017-09-21T07:01:21.309Z,19.24
2017-09-21T07:02:21.350Z,19.34
2017-09-21T07:04:14.348Z,19.70
2017-09-21T07:05:14.409Z,19.79
2017-09-21T07:07:07.428Z,19.95
2017-09-21T07:08:07.468Z,20.29
2017-09-21T07:10:00.483Z,20.52
2017-09-21T07:11:00.528Z,20.74
2017-09-21T07:12:53.529Z,20.96
2017-09-21T07:13:53.594Z,21.27
2017-09-21T07:15:46.612Z,21.43
2017-09-21T07:16:46.655Z,21.64
2017-09-21T07:18:39.690Z,22.06
2017-09-21T07:19:39.784Z,21.73
2017-09-21T07:21:32.736Z,21.60
2017-09-21T07:22:32.791Z,21.85
2017-09-21T07:24:25.781Z,22.11
2017-09-21T07:25:25.845Z,22.13
2017-09-21T07:27:18.874Z,22.07
2017-09-21T07:28:18.908Z,22.11
2017-09-21T07:30:11.923Z,22.57
2017-09-21T07:31:11.985Z,22.90
2017-09-21T07:33:04.981Z,21.62
2017-09-21T07:34:05.044Z,21.82
2017-09-21T07:35:58.082Z,22.22
2017-09-21T07:36:58.115Z,22.62
2017-09-21T07:38:51.116Z,22.83
2017-09-21T07:39:51.183Z,22.98
2017-09-21T07:41:44.217Z,22.75
2017-09-21T07:42:44.256Z,23.00
2017-09-21T07:44:37.266Z,22.78
2017-09-21T07:45:37.332Z,23.02
2017-09-21T07:47:30.354Z,23.27
2017-09-21T07:48:30.401Z,23.41
2017-09-21T07:50:23.426Z,23.39
2017-09-21T07:51:23.470Z,23.58
2017-09-21T07:53:16.474Z,23.66
2017-09-21T07:54:16.540Z,23.69
2017-09-21T07:56:09.566Z,24.10
2017-09-21T07:57:09.618Z,24.48
2017-09-21T07:59:02.620Z,24.45
2017-09-21T08:00:02.691Z,24.11
2017-09-21T08:01:55.712Z,24.69
2017-09-21T08:02:55.767Z,24.60
2017-09-21T08:04:48.765Z,24.28
2017-09-21T08:05:48.833Z,24.35
2017-09-21T08:07:41.858Z,23.84
2017-09-21T08:08:41.910Z,23.81
2017-09-21T08:10:34.936Z,24.14
2017-09-21T08:11:34.981Z,24.48
2017-09-21T08:13:27.994Z,24.47
2017-09-21T08:14:28.053Z,24.23
2017-09-21T08:16:21.083Z,24.39
2017-09-21T08:17:21.132Z,24.48
2017-09-21T08:19:14.161Z,24.70
2017-09-21T08:20:14.208Z,23.95
2017-09-21T08:22:07.233Z,23.61
2017-09-21T08:23:07.281Z,24.10
2017-09-21T08:25:00.286Z,24.95
2017-09-21T08:26:00.362Z,24.92
2017-09-21T08:27:53.380Z,24.23
2017-09-21T08:28:53.431Z,24.78
2017-09-21T08:30:46.455Z,25.06
2017-09-21T08:31:46.505Z,25.25
2017-09-21T08:33:39.516Z,24.58
2017-09-21T08:34:39.586Z,24.48
2017-09-21T08:36:32.621Z,24.66
2017-09-21T08:37:32.669Z,24.96
2017-09-21T08:39:25.677Z,25.47
2017-09-21T08:40:25.744Z,25.08
2017-09-21T08:42:18.772Z,25.35
2017-09-21T08:43:18.820Z,25.26
2017-09-21T08:45:11.842Z,24.91
2017-09-21T08:46:11.901Z,25.13
2017-09-21T08:48:04.974Z,25.06
2017-09-21T08:49:04.978Z,24.89
2017-09-21T08:50:58.009Z,24.99
2017-09-21T08:51:58.058Z,24.50
2017-09-21T08:53:51.081Z,23.81
2017-09-21T08:54:51.134Z,22.83
2017-09-21T08:56:44.174Z,20.78
2017-09-21T08:57:44.217Z,20.29
2017-09-21T08:59:37.220Z,19.96
2017-09-21T09:00:37.285Z,19.88
2017-09-21T09:02:30.335Z,19.45
2017-09-21T09:03:30.356Z,19.56
2017-09-21T09:05:23.362Z,19.56
2017-09-21T09:06:23.432Z,19.45
2017-09-21T09:08:16.460Z,19.48
2017-09-21T09:09:16.507Z,19.64
2017-09-21T09:11:09.528Z,19.79
2017-09-21T09:12:09.575Z,19.67
2017-09-21T09:14:02.577Z,19.56
2017-09-21T09:15:02.640Z,19.58
2017-09-21T09:16:55.660Z,19.52
2017-09-21T09:17:55.710Z,19.55
2017-09-21T09:19:48.706Z,19.54
2017-09-21T09:20:48.779Z,19.44
2017-09-21T09:22:41.785Z,19.40
2017-09-21T09:23:41.836Z,19.27
2017-09-21T09:25:34.846Z,19.37
2017-09-21T09:26:34.905Z,19.07
2017-09-21T09:28:27.947Z,19.27
2017-09-21T09:29:27.976Z,19.33
2017-09-21T09:31:21.005Z,19.40
2017-09-21T09:32:21.047Z,19.54
2017-09-21T09:34:14.065Z,19.63
2017-09-21T09:35:14.118Z,19.66
2017-09-21T09:37:07.140Z,19.40
2017-09-21T09:38:07.184Z,19.18
2017-09-21T09:40:00.176Z,19.14
2017-09-21T09:41:00.241Z,19.29
2017-09-21T09:42:53.257Z,19.27
2017-09-21T09:43:53.304Z,19.41
2017-09-21T09:45:46.298Z,19.41
2017-09-21T09:46:46.363Z,19.44
2017-09-21T09:48:39.387Z,19.52
2017-09-21T09:49:39.436Z,19.41
2017-09-21T09:51:32.450Z,19.45
2017-09-21T09:52:32.492Z,19.49
2017-09-21T09:54:25.490Z,19.39
2017-09-21T09:55:25.556Z,19.47
2017-09-21T09:57:18.584Z,19.52
2017-09-21T09:58:18.613Z,19.62
2017-09-21T10:00:11.620Z,19.55
2017-09-21T10:01:11.687Z,19.63
2017-09-21T10:03:04.735Z,19.51
2017-09-21T10:04:04.734Z,19.55
2017-09-21T10:05:57.730Z,19.54
2017-09-21T10:06:57.793Z,19.63
2017-09-21T10:08:50.809Z,19.55
2017-09-21T10:09:50.853Z,19.73
2017-09-21T10:11:43.874Z,19.62
2017-09-21T10:12:43.919Z,19.56
2017-09-21T10:14:36.920Z,19.47
2017-09-21T10:15:36.986Z,19.64
2017-09-21T10:17:30.013Z,19.63
2017-09-21T10:18:30.057Z,19.62
2017-09-21T10:20:23.052Z,19.66
2017-09-21T10:21:23.118Z,19.79
2017-09-21T10:23:16.139Z,19.88
2017-09-21T10:24:16.180Z,19.66
2017-09-21T10:26:09.193Z,19.66
2017-09-21T10:27:09.258Z,19.59
2017-09-21T10:29:02.272Z,19.85
2017-09-21T10:30:02.323Z,19.82
2017-09-21T10:31:55.339Z,19.92
2017-09-21T10:32:55.381Z,19.86
2017-09-21T10:34:48.385Z,19.94
2017-09-21T10:35:48.442Z,19.82
2017-09-21T10:37:41.459Z,19.77
2017-09-21T10:38:41.503Z,19.86
2017-09-21T10:40:34.499Z,19.74
2017-09-21T10:41:34.561Z,19.86
2017-09-21T10:43:27.608Z,19.94
2017-09-21T10:44:27.630Z,19.94
2017-09-21T10:46:20.626Z,19.91
2017-09-21T10:47:20.689Z,19.92
2017-09-21T10:49:13.708Z,19.67
2017-09-21T10:50:13.752Z,19.58
2017-09-21T10:52:06.769Z,19.64
2017-09-21T10:53:06.819Z,19.76
2017-09-21T10:54:59.812Z,20.00
2017-09-21T10:55:59.889Z,19.96
2017-09-21T10:57:53.403Z,20.07
2017-09-21T10:58:53.446Z,19.56
2017-09-21T11:00:46.442Z,19.59
2017-09-21T11:01:46.506Z,19.66
2017-09-21T11:03:39.537Z,19.36
2017-09-21T11:04:39.570Z,19.22
2017-09-21T11:06:32.568Z,19.11
2017-09-21T11:07:32.634Z,19.36
2017-09-21T11:09:25.662Z,19.49
2017-09-21T11:10:25.696Z,19.77
2017-09-21T11:12:18.717Z,20.06
2017-09-21T11:13:18.759Z,20.22
2017-09-21T11:15:11.755Z,20.25
2017-09-21T11:16:11.820Z,20.29
2017-09-21T11:18:04.835Z,20.34
2017-09-21T11:19:04.881Z,20.21
2017-09-21T11:20:57.885Z,20.11
2017-09-21T11:21:57.944Z,19.95
2017-09-21T11:23:50.959Z,19.76
2017-09-21T11:24:51.006Z,19.69
2017-09-21T11:26:44.002Z,19.76
2017-09-21T11:27:44.067Z,19.84
2017-09-21T11:29:37.082Z,19.95
2017-09-21T11:30:37.127Z,19.95
2017-09-21T11:32:30.151Z,20.18
2017-09-21T11:33:30.239Z,20.24
2017-09-21T11:35:23.197Z,20.22
2017-09-21T11:36:23.263Z,20.26
2017-09-21T11:38:16.316Z,20.04
2017-09-21T11:39:16.342Z,20.04
2017-09-21T11:41:09.338Z,19.99
2017-09-21T11:42:09.400Z,20.00
2017-09-21T11:44:02.421Z,19.91
2017-09-21T11:45:02.471Z,20.03
2017-09-21T11:46:55.468Z,20.03
2017-09-21T11:47:55.531Z,19.88
2017-09-21T11:49:48.546Z,20.04
2017-09-21T11:50:48.600Z,20.06
2017-09-21T11:52:41.612Z,20.02
2017-09-21T11:53:41.654Z,19.85
2017-09-21T11:55:34.655Z,19.81
2017-09-21T11:56:34.721Z,19.74
2017-09-21T11:58:28.246Z,19.54
2017-09-21T11:59:28.288Z,19.63
2017-09-21T12:01:21.291Z,19.82
2017-09-21T12:02:21.372Z,19.67
2017-09-21T12:04:14.385Z,19.81
2017-09-21T12:05:14.425Z,19.91
2017-09-21T12:07:07.433Z,19.94
2017-09-21T12:08:07.485Z,19.94
2017-09-21T12:10:00.512Z,19.81
2017-09-21T12:11:00.548Z,19.88
2017-09-21T12:12:53.569Z,20.03
2017-09-21T12:13:53.609Z,19.99
2017-09-21T12:15:46.611Z,20.00
2017-09-21T12:16:46.676Z,20.04
2017-09-21T12:18:39.690Z,20.13
2017-09-21T12:19:39.735Z,20.06
2017-09-21T12:21:32.730Z,20.02
2017-09-21T12:22:32.795Z,20.04
2017-09-21T12:24:25.816Z,19.95
2017-09-21T12:25:25.857Z,19.96
2017-09-21T12:27:18.853Z,19.81
2017-09-21T12:28:18.935Z,19.91
2017-09-21T12:30:11.936Z,20.11
2017-09-21T12:31:11.981Z,20.10
2017-09-21T12:33:04.999Z,20.06
2017-09-21T12:34:05.041Z,20.13
2017-09-21T12:35:58.039Z,20.28
2017-09-21T12:36:58.110Z,20.22
2017-09-21T12:38:51.120Z,20.50
2017-09-21T12:39:51.173Z,20.55
2017-09-21T12:41:44.164Z,20.87
2017-09-21T12:42:44.225Z,20.80
2017-09-21T12:44:37.255Z,20.67
2017-09-21T12:45:37.287Z,20.55
2017-09-21T12:47:30.285Z,20.37
2017-09-21T12:48:30.361Z,20.39
2017-09-21T12:50:23.369Z,20.51
2017-09-21T12:51:23.427Z,20.37
2017-09-21T12:53:16.448Z,20.24
2017-09-21T12:54:16.480Z,20.16
2017-09-21T12:56:09.500Z,20.32
2017-09-21T12:57:09.548Z,20.26
2017-09-21T12:59:02.567Z,20.22
2017-09-21T13:00:02.612Z,20.25
2017-09-21T13:01:55.616Z,20.41
2017-09-21T13:02:55.676Z,20.40
2017-09-21T13:04:48.720Z,20.34
2017-09-21T13:05:48.748Z,20.56
2017-09-21T13:07:41.729Z,20.63
2017-09-21T13:08:41.796Z,20.74
2017-09-21T13:10:34.826Z,20.82
2017-09-21T13:11:34.858Z,20.84
2017-09-21T13:13:27.877Z,20.99
2017-09-21T13:14:27.921Z,20.75
2017-09-21T13:16:20.937Z,20.55
2017-09-21T13:17:20.990Z,20.51
2017-09-21T13:19:14.008Z,20.25
2017-09-21T13:20:14.054Z,20.25
2017-09-21T13:22:07.049Z,20.13
2017-09-21T13:23:07.143Z,20.19
2017-09-21T13:25:00.140Z,20.11
2017-09-21T13:26:00.179Z,20.13
2017-09-21T13:27:53.178Z,20.28
2017-09-21T13:28:53.384Z,20.40
2017-09-21T13:30:46.267Z,20.43
2017-09-21T13:31:46.303Z,20.41
2017-09-21T13:33:39.339Z,20.34
2017-09-21T13:34:39.369Z,20.43
2017-09-21T13:36:32.365Z,20.60
2017-09-21T13:37:32.430Z,20.65
2017-09-21T13:39:25.448Z,20.70
2017-09-21T13:40:25.501Z,20.85
2017-09-21T13:42:18.491Z,20.72
2017-09-21T13:43:18.569Z,20.77
2017-09-21T13:45:11.570Z,20.87
2017-09-21T13:46:11.616Z,21.00
2017-09-21T13:48:04.622Z,20.78
2017-09-21T13:49:04.687Z,20.74
2017-09-21T13:50:57.741Z,21.00
2017-09-21T13:51:57.790Z,20.96
2017-09-21T13:53:50.796Z,21.11
2017-09-21T13:54:50.842Z,21.20
2017-09-21T13:56:43.857Z,21.14
2017-09-21T13:57:43.903Z,21.15
2017-09-21T13:59:36.922Z,21.02
2017-09-21T14:00:36.964Z,20.87
2017-09-21T14:02:29.963Z,20.87
2017-09-21T14:03:30.032Z,20.80
2017-09-21T14:05:23.047Z,20.84
2017-09-21T14:06:23.092Z,20.84
2017-09-21T14:08:16.091Z,20.72
2017-09-21T14:09:16.156Z,20.66
2017-09-21T14:11:09.693Z,20.47
2017-09-21T14:12:09.727Z,20.48
2017-09-21T14:14:02.753Z,20.36
2017-09-21T14:15:02.794Z,20.41
2017-09-21T14:16:55.792Z,20.39
2017-09-21T14:17:55.858Z,20.36
2017-09-21T14:19:49.387Z,20.44
2017-09-21T14:20:49.431Z,20.29
2017-09-21T14:22:42.440Z,20.34
2017-09-21T14:23:42.500Z,20.44
2017-09-21T14:25:35.516Z,20.56
2017-09-21T14:26:35.561Z,20.72
2017-09-21T14:28:28.561Z,20.52
2017-09-21T14:29:28.629Z,20.52
2017-09-21T14:31:21.654Z,20.40
2017-09-21T14:32:21.700Z,20.34
2017-09-21T14:34:14.737Z,20.14
2017-09-21T14:35:14.763Z,20.13
2017-09-21T14:37:07.761Z,20.19
2017-09-21T14:38:07.827Z,20.14
2017-09-21T14:40:00.845Z,20.24
2017-09-21T14:41:00.890Z,20.29
2017-09-21T14:42:53.890Z,20.21
2017-09-21T14:43:53.955Z,20.24
2017-09-21T14:45:46.973Z,20.24
2017-09-21T14:46:47.018Z,20.14
2017-09-21T14:48:40.022Z,20.11
2017-09-21T14:49:40.082Z,20.13
2017-09-21T14:51:33.097Z,20.16
2017-09-21T14:52:33.143Z,20.24
2017-09-21T14:54:26.159Z,20.24
2017-09-21T14:55:26.204Z,20.18
2017-09-21T14:57:19.205Z,20.21
2017-09-21T14:58:19.265Z,20.16
2017-09-21T15:00:12.292Z,20.18
2017-09-21T15:01:12.330Z,20.11
2017-09-21T15:03:05.325Z,20.13
2017-09-21T15:04:05.399Z,20.13
2017-09-21T15:05:58.413Z,20.22
2017-09-21T15:06:58.454Z,20.03
2017-09-21T15:08:51.477Z,20.11
2017-09-21T15:09:51.521Z,20.06
2017-09-21T15:11:44.538Z,20.11
2017-09-21T15:12:44.584Z,20.04
2017-09-21T15:14:37.608Z,20.04
2017-09-21T15:15:37.652Z,20.03
2017-09-21T15:17:30.650Z,20.06
2017-09-21T15:18:30.718Z,19.95
2017-09-21T15:20:25.263Z,19.94
2017-09-21T15:21:25.287Z,19.86
2017-09-21T15:23:18.287Z,19.91
2017-09-21T15:24:18.349Z,19.88
2017-09-21T15:26:11.371Z,19.86
2017-09-21T15:27:11.412Z,19.84
2017-09-21T15:29:04.415Z,19.94
2017-09-21T15:30:04.477Z,19.84
2017-09-21T15:31:57.504Z,19.85
2017-09-21T15:32:57.547Z,19.85
2017-09-21T15:34:50.572Z,19.79
2017-09-21T15:35:50.611Z,19.74
2017-09-21T15:37:43.605Z,19.77
2017-09-21T15:38:43.672Z,19.77
2017-09-21T15:40:36.692Z,19.77
2017-09-21T15:41:36.740Z,19.66
2017-09-21T15:43:29.735Z,19.51
2017-09-21T15:44:29.805Z,19.58
2017-09-21T15:46:22.818Z,19.59
2017-09-21T15:47:22.861Z,19.51
2017-09-21T15:49:15.859Z,19.66
2017-09-21T15:50:15.935Z,19.56
2017-09-21T15:52:08.944Z,19.58
2017-09-21T15:53:08.989Z,19.56
2017-09-21T15:55:02.006Z,19.55
2017-09-21T15:56:02.051Z,19.58
2017-09-21T15:57:55.049Z,19.56
2017-09-21T15:58:55.110Z,19.44
2017-09-21T16:00:48.128Z,19.52
2017-09-21T16:01:48.171Z,19.59
2017-09-21T16:03:41.166Z,19.52
2017-09-21T16:04:41.231Z,19.51
2017-09-21T16:06:34.246Z,19.49
2017-09-21T16:07:34.292Z,19.55
2017-09-21T16:09:27.286Z,19.52
2017-09-21T16:10:27.351Z,19.52
2017-09-21T16:12:20.369Z,19.45
2017-09-21T16:13:20.418Z,19.44
2017-09-21T16:15:13.426Z,19.48
2017-09-21T16:16:13.473Z,19.47
2017-09-21T16:18:06.467Z,19.45
2017-09-21T16:19:06.558Z,19.39
2017-09-21T16:20:59.546Z,19.39
2017-09-21T16:21:59.592Z,19.47
2017-09-21T16:23:52.588Z,19.44
2017-09-21T16:24:52.650Z,19.41
2017-09-21T16:26:45.668Z,19.45
2017-09-21T16:27:45.711Z,19.27
2017-09-21T16:29:38.708Z,19.33
2017-09-21T16:30:38.786Z,19.37
2017-09-21T16:32:31.790Z,19.40
2017-09-21T16:33:31.838Z,19.36
2017-09-21T16:35:24.848Z,19.15
2017-09-21T16:36:24.893Z,19.12
2017-09-21T16:38:17.891Z,19.09
2017-09-21T16:39:17.958Z,19.15
2017-09-21T16:41:10.980Z,19.09
2017-09-21T16:42:11.023Z,19.08
2017-09-21T16:44:04.015Z,19.02
2017-09-21T16:45:04.087Z,18.98
2017-09-21T16:46:57.112Z,18.89
2017-09-21T16:47:57.150Z,18.83
2017-09-21T16:49:50.187Z,18.77
2017-09-21T16:50:50.212Z,18.83
2017-09-21T16:52:43.233Z,18.68
2017-09-21T16:53:43.269Z,18.60
2017-09-21T16:55:36.289Z,18.68
2017-09-21T16:56:36.343Z,18.59
2017-09-21T16:58:29.341Z,18.52
2017-09-21T16:59:29.407Z,18.59
2017-09-21T17:01:22.426Z,18.56
2017-09-21T17:02:22.459Z,18.58
2017-09-21T17:04:15.453Z,18.43
2017-09-21T17:05:15.516Z,18.40
2017-09-21T17:07:08.531Z,18.35
2017-09-21T17:08:08.579Z,18.38
2017-09-21T17:10:01.568Z,18.22
2017-09-21T17:11:01.633Z,18.19
2017-09-21T17:12:54.652Z,18.15
2017-09-21T17:13:54.693Z,18.10
2017-09-21T17:15:47.711Z,18.05
2017-09-21T17:16:47.751Z,18.07
2017-09-21T17:18:40.744Z,17.95
2017-09-21T17:19:40.811Z,18.04
2017-09-21T17:21:33.824Z,17.85
2017-09-21T17:22:33.867Z,17.78
2017-09-21T17:24:26.861Z,17.72
2017-09-21T17:25:27.047Z,17.74
2017-09-21T17:27:19.946Z,17.60
2017-09-21T17:28:19.991Z,17.67
2017-09-21T17:30:12.987Z,17.54
2017-09-21T17:31:13.051Z,17.51
2017-09-21T17:33:06.064Z,17.41
2017-09-21T17:34:06.108Z,17.49
2017-09-21T17:35:59.128Z,17.38
2017-09-21T17:36:59.167Z,17.33
2017-09-21T17:38:52.168Z,17.23
2017-09-21T17:39:52.234Z,17.22
2017-09-21T17:41:45.242Z,17.11
2017-09-21T17:42:45.286Z,17.14
2017-09-21T17:44:38.284Z,17.11
2017-09-21T17:45:38.349Z,17.04
2017-09-21T17:47:31.363Z,16.86
2017-09-21T17:48:31.412Z,16.84
2017-09-21T17:50:24.459Z,16.75
2017-09-21T17:51:24.488Z,16.75
2017-09-21T17:53:17.477Z,16.66
2017-09-21T17:54:17.549Z,16.68
2017-09-21T17:56:10.556Z,16.61
2017-09-21T17:57:10.601Z,16.56
2017-09-21T17:59:03.595Z,16.54
2017-09-21T18:00:03.667Z,16.51
2017-09-21T18:01:56.671Z,16.47
2017-09-21T18:02:56.723Z,16.46
2017-09-21T18:04:49.705Z,16.46
2017-09-21T18:05:49.777Z,16.39
2017-09-21T18:07:42.779Z,16.36
2017-09-21T18:08:42.832Z,16.24
2017-09-21T18:10:35.839Z,16.31
2017-09-21T18:11:35.882Z,16.26
2017-09-21T18:13:28.873Z,16.36
2017-09-21T18:14:28.937Z,16.05
2017-09-21T18:16:21.949Z,16.10
2017-09-21T18:17:21.992Z,16.21
2017-09-21T18:19:14.989Z,16.20
2017-09-21T18:20:15.046Z,16.12
2017-09-21T18:22:08.063Z,16.12
2017-09-21T18:23:08.103Z,16.05
2017-09-21T18:25:01.098Z,16.08
2017-09-21T18:26:01.158Z,16.09
2017-09-21T18:27:54.169Z,15.92
2017-09-21T18:28:54.211Z,15.88
2017-09-21T18:30:47.227Z,15.76
2017-09-21T18:31:47.269Z,15.77
2017-09-21T18:33:40.262Z,15.90